createdAt,value
2022-11-05T00:01:36.153Z,100491.78
2022-11-05T00:04:24.457Z,100494.56
2022-11-05T00:07:12.379Z,100508.91
2022-11-05T00:09:39.188Z,100518.72
2022-11-05T00:12:24.815Z,100513.25
2022-11-05T00:15:10.162Z,100514.31
2022-11-05T00:17:36.981Z,100523.81
2022-11-05T00:20:03.744Z,100525.03
2022-11-05T00:22:48.967Z,100528.53
2022-11-05T00:25:18.538Z,100541.00
2022-11-05T00:27:45.346Z,100537.75
2022-11-05T00:30:12.174Z,100538.91
2022-11-05T00:32:38.925Z,100541.19
2022-11-05T00:35:05.691Z,100544.75
2022-11-05T00:37:32.596Z,100541.41
2022-11-05T00:39:59.436Z,100551.75
2022-11-05T00:42:44.964Z,100548.09
2022-11-05T00:45:11.786Z,100554.66
2022-11-05T00:48:10.591Z,100559.19
2022-11-05T00:50:37.411Z,100564.16
2022-11-05T00:53:04.188Z,100569.25
2022-11-05T00:55:31.037Z,100577.28
2022-11-05T00:57:57.823Z,100579.19
2022-11-05T01:00:24.639Z,100577.78
2022-11-05T01:02:51.538Z,100580.38
2022-11-05T01:05:18.381Z,100576.03
2022-11-05T01:07:45.129Z,100583.66
2022-11-05T01:10:12.055Z,100588.47
2022-11-05T01:12:38.820Z,100593.59
2022-11-05T01:15:06.180Z,100594.91
2022-11-05T01:17:32.945Z,100595.53
2022-11-05T01:19:59.682Z,100595.41
2022-11-05T01:22:26.422Z,100595.31
2022-11-05T01:24:53.170Z,100595.34
2022-11-05T01:27:19.910Z,100598.16
2022-11-05T01:29:46.645Z,100602.06
2022-11-05T01:32:13.399Z,100609.63
2022-11-05T01:34:40.158Z,100597.13
2022-11-05T01:37:06.899Z,100603.84
2022-11-05T01:39:33.717Z,100610.84
2022-11-05T01:42:00.527Z,100610.41
2022-11-05T01:44:27.267Z,100606.97
2022-11-05T01:46:54.015Z,100606.47
2022-11-05T01:49:20.754Z,100606.53
2022-11-05T01:51:48.213Z,100608.00
2022-11-05T01:54:14.978Z,100612.81
2022-11-05T01:56:41.743Z,100612.53
2022-11-05T01:59:08.492Z,100615.63
2022-11-05T02:01:35.404Z,100617.97
2022-11-05T02:04:02.225Z,100616.81
2022-11-05T02:06:28.976Z,100617.81
2022-11-05T02:08:55.727Z,100620.91
2022-11-05T02:11:22.471Z,100620.22
2022-11-05T02:13:49.215Z,100627.28
2022-11-05T02:16:15.967Z,100623.31
2022-11-05T02:18:42.736Z,100626.69
2022-11-05T02:21:09.491Z,100625.63
2022-11-05T02:23:36.246Z,100635.38
2022-11-05T02:26:03.021Z,100637.56
2022-11-05T02:28:29.781Z,100627.66
2022-11-05T02:30:56.545Z,100635.22
2022-11-05T02:33:23.311Z,100633.84
2022-11-05T02:35:50.103Z,100642.94
2022-11-05T02:38:16.890Z,100639.50
2022-11-05T02:40:43.645Z,100637.22
2022-11-05T02:43:15.068Z,100648.75
2022-11-05T02:45:41.836Z,100645.22
2022-11-05T02:48:08.632Z,100650.94
2022-11-05T02:50:35.394Z,100650.78
2022-11-05T02:53:02.147Z,100652.31
2022-11-05T02:55:28.889Z,100648.81
2022-11-05T02:57:55.663Z,100648.28
2022-11-05T03:00:22.428Z,100652.31
2022-11-05T03:02:49.311Z,100654.84
2022-11-05T03:05:16.121Z,100662.19
2022-11-05T03:07:42.887Z,100662.78
2022-11-05T03:10:09.651Z,100673.56
2022-11-05T03:12:36.390Z,100679.00
2022-11-05T03:15:03.143Z,100675.13
2022-11-05T03:17:29.894Z,100681.59
2022-11-05T03:19:56.645Z,100685.63
2022-11-05T03:22:23.427Z,100677.41
2022-11-05T03:24:50.167Z,100679.81
2022-11-05T03:27:16.928Z,100680.00
2022-11-05T03:29:43.685Z,100677.13
2022-11-05T03:32:10.432Z,100680.44
2022-11-05T03:34:37.175Z,100678.19
2022-11-05T03:37:03.932Z,100681.00
2022-11-05T03:39:30.759Z,100687.97
2022-11-05T03:41:57.687Z,100687.47
2022-11-05T03:44:24.495Z,100695.41
2022-11-05T03:46:51.245Z,100695.25
2022-11-05T03:49:17.996Z,100697.97
2022-11-05T03:51:44.781Z,100706.22
2022-11-05T03:54:11.610Z,100704.16
2022-11-05T03:56:38.411Z,100708.81
2022-11-05T03:59:05.175Z,100709.75
2022-11-05T04:01:32.056Z,100710.81
2022-11-05T04:03:58.905Z,100714.03
2022-11-05T04:06:44.385Z,100715.72
2022-11-05T04:09:29.758Z,100728.25
2022-11-05T04:12:15.043Z,100726.88
2022-11-05T04:14:41.793Z,100730.91
2022-11-05T04:17:11.365Z,100728.00
2022-11-05T04:19:56.984Z,100730.84
2022-11-05T04:22:42.491Z,100730.06
2022-11-05T04:25:09.331Z,100738.66
2022-11-05T04:27:36.151Z,100729.81
2022-11-05T04:30:21.787Z,100744.13
2022-11-05T04:32:48.765Z,100744.94
2022-11-05T04:35:15.568Z,100748.47
2022-11-05T04:37:42.351Z,100755.78
2022-11-05T04:40:09.095Z,100754.81
2022-11-05T04:42:35.842Z,100750.44
2022-11-05T04:45:02.609Z,100745.81
2022-11-05T04:47:29.363Z,100745.44
2022-11-05T04:49:56.123Z,100749.84
2022-11-05T04:52:22.930Z,100742.09
2022-11-05T04:54:49.662Z,100749.91
2022-11-05T04:57:16.411Z,100755.88
2022-11-05T04:59:43.185Z,100752.38
2022-11-05T05:02:10.023Z,100757.75
2022-11-05T05:04:36.853Z,100763.53
2022-11-05T05:07:03.617Z,100764.31
2022-11-05T05:09:30.371Z,100769.59
2022-11-05T05:11:57.118Z,100770.53
2022-11-05T05:14:23.882Z,100764.81
2022-11-05T05:16:50.749Z,100768.03
2022-11-05T05:19:17.499Z,100768.97
2022-11-05T05:21:44.281Z,100774.28
2022-11-05T05:24:11.069Z,100780.34
2022-11-05T05:26:37.815Z,100783.59
2022-11-05T05:29:04.642Z,100781.47
2022-11-05T05:31:31.421Z,100791.81
2022-11-05T05:33:58.215Z,100797.44
2022-11-05T05:36:25.008Z,100789.97
2022-11-05T05:38:51.771Z,100797.22
2022-11-05T05:41:18.524Z,100796.75
2022-11-05T05:43:45.315Z,100801.69
2022-11-05T05:46:12.061Z,100801.84
2022-11-05T05:48:38.851Z,100806.28
2022-11-05T05:51:05.620Z,100812.09
2022-11-05T05:53:32.377Z,100814.63
2022-11-05T05:55:59.136Z,100815.50
2022-11-05T05:58:28.866Z,100822.13
2022-11-05T06:00:55.608Z,100824.00
2022-11-05T06:03:22.459Z,100809.91
2022-11-05T06:05:49.299Z,100813.81
2022-11-05T06:08:16.084Z,100819.81
2022-11-05T06:10:43.000Z,100821.84
2022-11-05T06:13:10.104Z,100824.09
2022-11-05T06:15:37.064Z,100823.75
2022-11-05T06:18:03.807Z,100827.34
2022-11-05T06:20:30.552Z,100827.63
2022-11-05T06:22:57.330Z,100831.31
2022-11-05T06:25:24.128Z,100838.44
2022-11-05T06:27:50.885Z,100846.81
2022-11-05T06:30:17.699Z,100842.38
2022-11-05T06:32:44.490Z,100847.47
2022-11-05T06:35:11.314Z,100855.88
2022-11-05T06:37:38.071Z,100854.53
2022-11-05T06:40:04.849Z,100853.47
2022-11-05T06:42:31.618Z,100856.94
2022-11-05T06:44:58.368Z,100860.31
2022-11-05T06:47:25.106Z,100860.00
2022-11-05T06:49:51.899Z,100870.28
2022-11-05T06:52:18.650Z,100873.81
2022-11-05T06:54:45.437Z,100879.88
2022-11-05T06:57:12.227Z,100877.16
2022-11-05T06:59:39.000Z,100885.31
2022-11-05T07:02:05.804Z,100885.69
2022-11-05T07:04:32.615Z,100890.69
2022-11-05T07:06:59.822Z,100896.41
2022-11-05T07:09:26.568Z,100894.66
2022-11-05T07:11:53.328Z,100897.28
2022-11-05T07:14:20.147Z,100903.84
2022-11-05T07:16:46.891Z,100899.91
2022-11-05T07:19:13.648Z,100897.34
2022-11-05T07:21:40.832Z,100906.72
2022-11-05T07:24:07.565Z,100909.00
2022-11-05T07:26:34.792Z,100907.59
2022-11-05T07:29:01.627Z,100914.47
2022-11-05T07:31:28.451Z,100931.19
2022-11-05T07:33:55.206Z,100932.78
2022-11-05T07:36:22.012Z,100940.28
2022-11-05T07:38:48.763Z,100943.34
2022-11-05T07:41:15.531Z,100945.53
2022-11-05T07:43:42.281Z,100943.03
2022-11-05T07:46:13.656Z,100949.16
2022-11-05T07:48:40.737Z,100958.19
2022-11-05T07:51:07.493Z,100958.47
2022-11-05T07:53:34.231Z,100956.72
2022-11-05T07:56:00.990Z,100956.59
2022-11-05T07:58:27.738Z,100959.25
2022-11-05T08:00:54.670Z,100962.44
2022-11-05T08:03:21.866Z,100947.72
2022-11-05T08:05:49.042Z,100955.41
2022-11-05T08:08:15.789Z,100951.88
2022-11-05T08:10:42.627Z,100961.94
2022-11-05T08:13:09.517Z,100969.94
2022-11-05T08:15:37.847Z,100969.22
2022-11-05T08:18:04.607Z,100976.94
2022-11-05T08:20:31.415Z,100974.56
2022-11-05T08:22:58.175Z,100976.03
2022-11-05T08:25:24.944Z,100981.22
2022-11-05T08:27:51.696Z,100981.41
2022-11-05T08:30:18.437Z,100978.72
2022-11-05T08:32:45.199Z,100983.41
2022-11-05T08:35:11.955Z,100977.41
2022-11-05T08:37:39.294Z,100977.34
2022-11-05T08:40:06.046Z,100982.28
2022-11-05T08:42:32.793Z,100984.78
2022-11-05T08:44:59.552Z,100982.13
2022-11-05T08:47:26.334Z,100992.53
2022-11-05T08:49:54.472Z,100991.25
2022-11-05T08:52:21.227Z,100992.38
2022-11-05T08:54:48.016Z,100997.78
2022-11-05T08:57:14.921Z,101001.56
2022-11-05T08:59:41.682Z,101002.34
2022-11-05T09:02:08.585Z,101003.44
2022-11-05T09:04:35.467Z,101008.69
2022-11-05T09:07:02.212Z,101013.91
2022-11-05T09:09:29.004Z,101017.91
2022-11-05T09:12:11.892Z,101015.28
2022-11-05T09:14:39.632Z,101015.22
2022-11-05T09:17:06.394Z,101018.06
2022-11-05T09:19:36.631Z,101019.00
2022-11-05T09:22:06.294Z,101024.53
2022-11-05T09:24:33.027Z,101032.72
2022-11-05T09:26:59.775Z,101045.97
2022-11-05T09:29:26.556Z,101047.78
2022-11-05T09:31:53.405Z,101045.56
2022-11-05T09:34:20.215Z,101052.25
2022-11-05T09:36:47.210Z,101057.91
2022-11-05T09:39:13.954Z,101056.97
2022-11-05T09:41:40.694Z,101064.56
2022-11-05T09:44:07.475Z,101061.38
2022-11-05T09:46:34.262Z,101067.84
2022-11-05T09:49:02.146Z,101063.59
2022-11-05T09:51:29.051Z,101070.47
2022-11-05T09:53:56.315Z,101069.84
2022-11-05T09:56:23.254Z,101071.59
2022-11-05T09:58:50.106Z,101078.03
2022-11-05T10:01:17.048Z,101074.25
2022-11-05T10:03:43.899Z,101073.44
2022-11-05T10:06:10.684Z,101079.59
2022-11-05T10:08:37.471Z,101088.31
2022-11-05T10:11:04.248Z,101082.69
2022-11-05T10:13:31.072Z,101082.25
2022-11-05T10:15:57.837Z,101085.22
2022-11-05T10:18:24.594Z,101092.31
2022-11-05T10:20:51.351Z,101092.91
2022-11-05T10:23:18.090Z,101092.16
2022-11-05T10:25:44.907Z,101093.88
2022-11-05T10:28:11.668Z,101104.63
2022-11-05T10:30:38.426Z,101102.31
2022-11-05T10:33:05.158Z,101106.06
2022-11-05T10:35:31.951Z,101098.28
2022-11-05T10:37:58.713Z,101099.59
2022-11-05T10:40:25.477Z,101092.47
2022-11-05T10:42:52.241Z,101096.06
2022-11-05T10:45:19.035Z,101091.97
2022-11-05T10:47:45.810Z,101097.25
2022-11-05T10:50:12.619Z,101089.47
2022-11-05T10:52:39.423Z,101096.16
2022-11-05T10:55:06.183Z,101095.22
2022-11-05T10:57:33.018Z,101094.00
2022-11-05T10:59:59.807Z,101092.41
2022-11-05T11:02:26.910Z,101093.91
2022-11-05T11:04:53.789Z,101104.00
2022-11-05T11:07:20.531Z,101089.81
2022-11-05T11:09:47.295Z,101098.50
2022-11-05T11:12:14.047Z,101095.34
2022-11-05T11:14:40.834Z,101101.56
2022-11-05T11:17:07.572Z,101102.59
2022-11-05T11:19:34.359Z,101103.13
2022-11-05T11:22:01.095Z,101100.19
2022-11-05T11:24:33.293Z,101103.28
2022-11-05T11:27:00.272Z,101099.25
2022-11-05T11:29:27.954Z,101096.16
2022-11-05T11:31:54.727Z,101098.31
2022-11-05T11:34:21.496Z,101095.75
2022-11-05T11:36:48.270Z,101105.44
2022-11-05T11:39:15.847Z,101105.78
2022-11-05T11:41:42.746Z,101105.50
2022-11-05T11:44:09.547Z,101097.25
2022-11-05T11:46:36.367Z,101101.09
2022-11-05T11:49:03.145Z,101099.69
2022-11-05T11:51:30.241Z,101094.97
2022-11-05T11:53:57.045Z,101093.34
2022-11-05T11:56:23.915Z,101083.50
2022-11-05T11:58:50.713Z,101078.84
2022-11-05T12:01:17.515Z,101078.19
2022-11-05T12:03:44.356Z,101072.66
2022-11-05T12:06:11.104Z,101081.16
2022-11-05T12:08:41.620Z,101078.28
2022-11-05T12:11:11.340Z,101083.50
2022-11-05T12:13:38.216Z,101083.28
2022-11-05T12:16:04.983Z,101084.06
2022-11-05T12:18:31.758Z,101088.50
2022-11-05T12:20:58.663Z,101093.66
2022-11-05T12:23:25.459Z,101083.94
2022-11-05T12:25:52.215Z,101084.94
2022-11-05T12:28:18.958Z,101093.63
2022-11-05T12:30:45.722Z,101080.59
2022-11-05T12:33:12.661Z,101088.97
2022-11-05T12:35:45.692Z,101094.38
2022-11-05T12:38:14.282Z,101082.03
2022-11-05T12:40:41.027Z,101078.19
2022-11-05T12:43:11.596Z,101077.47
2022-11-05T12:45:38.754Z,101078.00
2022-11-05T12:48:05.496Z,101084.78
2022-11-05T12:50:32.242Z,101080.97
2022-11-05T12:52:59.008Z,101085.38
2022-11-05T12:55:25.754Z,101091.47
2022-11-05T12:57:52.514Z,101092.44
2022-11-05T13:00:19.258Z,101084.13
2022-11-05T13:02:46.038Z,101090.47
2022-11-05T13:05:13.531Z,101085.38
2022-11-05T13:07:40.296Z,101086.63
2022-11-05T13:10:07.064Z,101080.50
2022-11-05T13:12:33.967Z,101092.38
2022-11-05T13:15:00.860Z,101085.41
2022-11-05T13:17:27.646Z,101084.03
2022-11-05T13:19:54.399Z,101088.34
2022-11-05T13:22:21.228Z,101088.28
2022-11-05T13:24:48.032Z,101094.06
2022-11-05T13:27:14.774Z,101088.78
2022-11-05T13:29:41.551Z,101096.19
2022-11-05T13:32:08.294Z,101092.75
2022-11-05T13:34:37.771Z,101088.50
2022-11-05T13:37:23.220Z,101091.63
2022-11-05T13:39:50.041Z,101095.53
2022-11-05T13:42:16.793Z,101087.53
2022-11-05T13:44:43.567Z,101093.19
2022-11-05T13:47:10.380Z,101086.53
2022-11-05T13:49:37.170Z,101094.53
2022-11-05T13:52:03.956Z,101091.59
2022-11-05T13:54:30.716Z,101091.56
2022-11-05T13:56:57.476Z,101091.63
2022-11-05T13:59:24.231Z,101091.84
2022-11-05T14:01:51.060Z,101087.53
2022-11-05T14:04:17.908Z,101092.84
2022-11-05T14:06:44.679Z,101093.22
2022-11-05T14:09:11.736Z,101102.47
2022-11-05T14:11:38.556Z,101094.34
2022-11-05T14:14:05.315Z,101100.31
2022-11-05T14:16:32.054Z,101105.34
2022-11-05T14:18:58.803Z,101103.38
2022-11-05T14:21:25.583Z,101107.97
2022-11-05T14:23:52.403Z,101107.97
2022-11-05T14:26:19.185Z,101098.84
2022-11-05T14:28:45.983Z,101096.22
2022-11-05T14:31:12.789Z,101105.09
2022-11-05T14:33:39.546Z,101087.81
2022-11-05T14:36:06.307Z,101097.63
2022-11-05T14:38:33.055Z,101103.38
2022-11-05T14:40:59.867Z,101097.69
2022-11-05T14:43:26.658Z,101095.97
2022-11-05T14:45:53.414Z,101100.41
2022-11-05T14:48:20.192Z,101105.75
2022-11-05T14:50:46.959Z,101108.25
2022-11-05T14:53:14.045Z,101119.03
2022-11-05T14:55:41.118Z,101113.34
2022-11-05T14:58:07.918Z,101117.50
2022-11-05T15:00:36.492Z,101118.38
2022-11-05T15:03:03.266Z,101120.00
2022-11-05T15:05:30.036Z,101126.06
2022-11-05T15:07:56.888Z,101129.44
2022-11-05T15:10:23.661Z,101130.38
2022-11-05T15:12:50.423Z,101122.06
2022-11-05T15:15:21.554Z,101138.13
2022-11-05T15:17:51.234Z,101130.63
2022-11-05T15:20:18.592Z,101132.13
2022-11-05T15:22:45.375Z,101129.78
2022-11-05T15:25:12.136Z,101133.13
2022-11-05T15:27:38.900Z,101130.94
2022-11-05T15:30:05.663Z,101140.84
2022-11-05T15:32:37.420Z,101145.09
2022-11-05T15:35:05.249Z,101147.16
2022-11-05T15:37:31.990Z,101148.00
2022-11-05T15:39:58.783Z,101150.50
2022-11-05T15:42:25.704Z,101149.34
2022-11-05T15:44:52.455Z,101150.16
2022-11-05T15:47:19.413Z,101141.31
2022-11-05T15:49:46.168Z,101151.25
2022-11-05T15:52:12.930Z,101151.63
2022-11-05T15:54:39.718Z,101148.38
2022-11-05T15:57:06.492Z,101143.09
2022-11-05T15:59:34.960Z,101145.19
2022-11-05T16:02:03.125Z,101156.34
2022-11-05T16:04:30.005Z,101157.00
2022-11-05T16:06:56.820Z,101157.72
2022-11-05T16:09:23.602Z,101165.59
2022-11-05T16:11:50.467Z,101162.38
2022-11-05T16:14:17.331Z,101165.38
2022-11-05T16:16:44.096Z,101160.44
2022-11-05T16:19:10.849Z,101168.09
2022-11-05T16:21:37.594Z,101163.34
2022-11-05T16:24:05.084Z,101161.00
2022-11-05T16:27:03.102Z,101160.25
2022-11-05T16:29:18.647Z,101165.19
2022-11-05T16:31:45.559Z,101156.44
2022-11-05T16:34:12.413Z,101161.69
2022-11-05T16:36:39.183Z,101169.69
2022-11-05T16:39:05.935Z,101165.72
2022-11-05T16:41:32.751Z,101173.03
2022-11-05T16:43:59.546Z,101174.13
2022-11-05T16:46:26.380Z,101179.53
2022-11-05T16:48:53.427Z,101185.88
2022-11-05T16:51:26.233Z,101188.34
2022-11-05T16:53:54.188Z,101193.41
2022-11-05T16:56:20.948Z,101188.97
2022-11-05T16:58:47.783Z,101183.91
2022-11-05T17:01:14.649Z,101185.34
2022-11-05T17:03:41.491Z,101187.88
2022-11-05T17:06:08.245Z,101191.03
2022-11-05T17:08:35.002Z,101192.91
2022-11-05T17:11:01.795Z,101190.56
2022-11-05T17:13:28.612Z,101192.97
2022-11-05T17:15:55.360Z,101191.25
2022-11-05T17:18:22.401Z,101192.06
2022-11-05T17:20:49.453Z,101201.81
2022-11-05T17:23:16.651Z,101198.00
2022-11-05T17:25:43.743Z,101201.31
2022-11-05T17:28:10.901Z,101200.91
2022-11-05T17:30:40.361Z,101198.34
2022-11-05T17:33:08.390Z,101202.97
2022-11-05T17:35:35.198Z,101204.97
2022-11-05T17:38:02.126Z,101201.72
2022-11-05T17:40:28.922Z,101205.84
2022-11-05T17:42:55.692Z,101200.81
2022-11-05T17:45:22.485Z,101195.69
2022-11-05T17:47:49.260Z,101196.75
2022-11-05T17:50:16.132Z,101195.47
2022-11-05T17:52:42.972Z,101190.84
2022-11-05T17:55:16.396Z,101212.38
2022-11-05T17:57:43.163Z,101213.22
2022-11-05T18:00:10.048Z,101213.19
2022-11-05T18:02:36.917Z,101205.13
2022-11-05T18:05:03.776Z,101211.28
2022-11-05T18:07:30.518Z,101210.78
2022-11-05T18:09:57.286Z,101207.56
2022-11-05T18:12:24.078Z,101218.13
2022-11-05T18:14:50.854Z,101209.88
2022-11-05T18:17:17.599Z,101219.81
2022-11-05T18:19:44.349Z,101218.50
2022-11-05T18:22:11.133Z,101209.50
2022-11-05T18:24:38.425Z,101219.66
2022-11-05T18:27:05.195Z,101211.31
2022-11-05T18:29:31.941Z,101212.00
2022-11-05T18:31:58.693Z,101221.31
2022-11-05T18:34:25.466Z,101226.38
2022-11-05T18:36:56.226Z,101222.75
2022-11-05T18:39:23.442Z,101220.59
2022-11-05T18:41:50.220Z,101223.34
2022-11-05T18:44:17.028Z,101217.84
2022-11-05T18:46:57.653Z,101215.22
2022-11-05T18:49:25.362Z,101223.66
2022-11-05T18:51:52.103Z,101205.84
2022-11-05T18:54:18.836Z,101210.34
2022-11-05T18:56:45.916Z,101213.69
2022-11-05T18:59:35.245Z,101212.22
2022-11-05T19:01:59.558Z,101204.88
2022-11-05T19:04:26.931Z,101214.06
2022-11-05T19:06:53.783Z,101207.16
2022-11-05T19:09:20.821Z,101205.22
2022-11-05T19:11:47.642Z,101209.00
2022-11-05T19:14:14.395Z,101212.38
2022-11-05T19:16:41.185Z,101211.91
2022-11-05T19:19:08.028Z,101211.66
2022-11-05T19:21:34.796Z,101208.47
2022-11-05T19:24:01.594Z,101211.25
2022-11-05T19:26:29.055Z,101226.56
2022-11-05T19:28:55.976Z,101217.66
2022-11-05T19:31:22.776Z,101214.41
2022-11-05T19:33:49.651Z,101216.81
2022-11-05T19:36:16.463Z,101225.03
2022-11-05T19:38:43.289Z,101221.34
2022-11-05T19:41:10.095Z,101217.44
2022-11-05T19:43:36.863Z,101209.47
2022-11-05T19:46:03.644Z,101211.13
2022-11-05T19:48:31.341Z,101213.66
2022-11-05T19:50:58.086Z,101218.91
2022-11-05T19:53:25.050Z,101221.88
2022-11-05T19:55:52.067Z,101223.94
2022-11-05T19:58:18.836Z,101218.66
2022-11-05T20:00:45.600Z,101224.34
2022-11-05T20:03:12.646Z,101232.97
2022-11-05T20:05:39.418Z,101232.31
2022-11-05T20:08:06.184Z,101220.84
2022-11-05T20:10:32.933Z,101222.38
2022-11-05T20:12:59.779Z,101207.94
2022-11-05T20:15:26.552Z,101203.16
2022-11-05T20:17:53.383Z,101200.50
2022-11-05T20:20:20.177Z,101206.03
2022-11-05T20:22:47.056Z,101209.91
2022-11-05T20:25:13.962Z,101207.72
2022-11-05T20:27:41.939Z,101211.97
2022-11-05T20:30:08.753Z,101213.81
2022-11-05T20:32:35.513Z,101215.91
2022-11-05T20:35:02.273Z,101220.59
2022-11-05T20:37:29.027Z,101220.97
2022-11-05T20:39:55.879Z,101226.22
2022-11-05T20:42:22.650Z,101222.38
2022-11-05T20:44:49.428Z,101226.31
2022-11-05T20:47:16.177Z,101222.47
2022-11-05T20:49:42.924Z,101227.66
2022-11-05T20:52:09.803Z,101224.75
2022-11-05T20:54:36.560Z,101233.22
2022-11-05T20:57:03.435Z,101231.88
2022-11-05T20:59:30.447Z,101235.66
2022-11-05T21:01:57.286Z,101229.53
2022-11-05T21:04:24.172Z,101234.41
2022-11-05T21:06:50.959Z,101236.44
2022-11-05T21:09:17.714Z,101241.97
2022-11-05T21:12:03.113Z,101255.03
2022-11-05T21:14:29.912Z,101247.03
2022-11-05T21:16:56.703Z,101246.09
2022-11-05T21:19:23.951Z,101248.69
2022-11-05T21:21:50.692Z,101240.72
2022-11-05T21:24:17.447Z,101236.47
2022-11-05T21:26:44.284Z,101234.81
2022-11-05T21:29:11.035Z,101234.78
2022-11-05T21:31:37.854Z,101230.59
2022-11-05T21:34:04.639Z,101223.84
2022-11-05T21:36:31.441Z,101231.84
2022-11-05T21:38:58.182Z,101235.22
2022-11-05T21:41:24.983Z,101233.06
2022-11-05T21:43:51.722Z,101229.66
2022-11-05T21:46:18.476Z,101232.59
2022-11-05T21:48:45.268Z,101233.88
2022-11-05T21:51:30.797Z,101230.81
2022-11-05T21:54:16.194Z,101226.88
2022-11-05T21:57:03.474Z,101227.66
2022-11-05T21:59:51.625Z,101222.03
2022-11-05T22:02:18.569Z,101224.63
2022-11-05T22:04:45.491Z,101212.00
2022-11-05T22:07:12.250Z,101218.72
2022-11-05T22:09:38.998Z,101212.38
2022-11-05T22:12:05.838Z,101207.91
2022-11-05T22:14:32.647Z,101217.19
2022-11-05T22:16:59.404Z,101216.09
2022-11-05T22:19:26.160Z,101220.38
2022-11-05T22:21:53.053Z,101214.81
2022-11-05T22:24:19.798Z,101212.19
2022-11-05T22:26:46.531Z,101206.47
2022-11-05T22:29:13.316Z,101214.72
2022-11-05T22:31:40.106Z,101209.34
2022-11-05T22:34:06.879Z,101205.38
2022-11-05T22:36:33.638Z,101222.66
2022-11-05T22:39:00.384Z,101212.22
2022-11-05T22:41:27.134Z,101216.63
2022-11-05T22:43:54.212Z,101216.63
2022-11-05T22:46:20.961Z,101224.22
2022-11-05T22:48:47.707Z,101212.97
2022-11-05T22:51:14.465Z,101207.66
2022-11-05T22:53:41.320Z,101209.38
2022-11-05T22:56:08.063Z,101209.34
2022-11-05T22:58:34.882Z,101209.94
2022-11-05T23:01:01.630Z,101205.00
2022-11-05T23:03:28.398Z,101203.06
2022-11-05T23:05:55.166Z,101201.47
2022-11-05T23:08:40.847Z,101199.47
2022-11-05T23:11:27.595Z,101205.31
2022-11-05T23:13:55.636Z,101207.72
2022-11-05T23:16:40.861Z,101206.94
2022-11-05T23:19:26.254Z,101204.81
2022-11-05T23:22:11.595Z,101211.97
2022-11-05T23:24:38.388Z,101212.81
2022-11-05T23:27:05.160Z,101214.63
2022-11-05T23:29:31.948Z,101214.44
2022-11-05T23:32:17.220Z,101214.41
2022-11-05T23:34:44.183Z,101211.16
2022-11-05T23:37:29.498Z,101208.13
2022-11-05T23:39:56.397Z,101201.50
2022-11-05T23:42:41.528Z,101195.19
2022-11-05T23:45:26.779Z,101188.47
2022-11-05T23:48:12.499Z,101186.00
2022-11-05T23:50:40.270Z,101177.34
2022-11-05T23:53:07.208Z,101189.59
2022-11-05T23:55:34.009Z,101192.97
2022-11-05T23:58:00.911Z,101195.66
